Time;durP1;ratioP1;P1;durP2;ratioP2;P2;SDS_P1;SDS_P2;PMS_P1;PMS_P2;Temp;Humidity;BMP_temperature;BMP_pressure;BME280_temperature;BME280_humidity;BME280_pressure;Samples;Min_cycle;Max_cycle;Signal;HPM_P1;HPM_P2
2022/05/06 00:03:24;;;;;;;22.20;19.80;;;15.40;99.90;;;;;;10505867;28;20192;-78
2022/05/06 00:08:26;;;;;;;21.70;19.50;;;15.40;99.90;;;;;;10507618;28;20231;-79
2022/05/06 00:13:28;;;;;;;23.87;21.27;;;15.40;99.90;;;;;;10515527;28;20222;-78
2022/05/06 00:18:32;;;;;;;23.17;20.60;;;15.40;99.90;;;;;;10484055;28;20696;-79
2022/05/06 00:23:34;;;;;;;24.20;20.90;;;15.40;99.90;;;;;;10500793;28;20664;-79
2022/05/06 00:28:37;;;;;;;25.00;21.30;;;15.40;99.90;;;;;;10470263;28;20220;-79
2022/05/06 00:33:43;;;;;;;21.57;19.47;;;15.40;99.90;;;;;;10489002;28;20330;-78
2022/05/06 00:38:45;;;;;;;23.67;21.37;;;15.40;99.90;;;;;;10481330;28;20758;-79
2022/05/06 00:43:48;;;;;;;23.93;19.43;;;15.40;99.90;;;;;;10476460;28;20205;-79
2022/05/06 00:48:52;;;;;;;22.43;20.03;;;15.40;99.90;;;;;;10462347;28;20315;-79
2022/05/06 00:53:56;;;;;;;22.60;20.23;;;15.40;99.90;;;;;;10474863;28;20254;-79
2022/05/06 00:58:58;;;;;;;24.00;21.50;;;15.40;99.90;;;;;;10462825;28;20774;-79
2022/05/06 01:04:05;;;;;;;25.00;20.57;;;15.40;99.90;;;;;;10478192;28;20204;-79
2022/05/06 01:09:07;;;;;;;23.97;20.40;;;15.40;99.90;;;;;;10472711;28;20224;-78
2022/05/06 01:14:09;;;;;;;25.20;22.60;;;15.40;99.90;;;;;;10498292;28;20254;-79
2022/05/06 01:19:13;;;;;;;24.33;21.87;;;15.40;99.90;;;;;;10480717;28;20590;-78
2022/05/06 01:24:17;;;;;;;24.03;21.53;;;15.40;99.90;;;;;;10471454;28;20215;-78
2022/05/06 01:29:21;;;;;;;24.13;20.90;;;15.40;99.90;;;;;;10489703;28;20678;-79
2022/05/06 01:34:28;;;;;;;24.00;21.60;;;15.30;99.90;;;;;;10464057;28;20223;-78
2022/05/06 01:39:35;;;;;;;24.87;22.27;;;15.30;99.90;;;;;;10487101;28;20220;-78
2022/05/06 01:44:43;;;;;;;24.50;22.10;;;15.30;99.90;;;;;;10482663;28;20254;-78
2022/05/06 01:49:50;;;;;;;25.00;22.30;;;15.30;99.90;;;;;;10485900;28;20239;-78
2022/05/06 01:54:55;;;;;;;22.03;19.93;;;15.30;99.90;;;;;;10474419;28;20210;-78
2022/05/06 01:59:58;;;;;;;22.23;19.90;;;15.30;99.90;;;;;;10469879;28;20227;-79
2022/05/06 02:05:19;;;;;;;25.30;22.63;;;15.30;99.90;;;;;;10476674;28;20200;-78
2022/05/06 02:10:26;;;;;;;23.13;20.53;;;15.30;99.90;;;;;;10488730;28;20216;-78
2022/05/06 02:15:38;;;;;;;21.47;19.17;;;15.30;99.90;;;;;;10474683;28;20217;-78
2022/05/06 02:21:18;;;;;;;22.67;20.33;;;15.30;99.90;;;;;;10473296;28;20192;-78
2022/05/06 02:26:33;;;;;;;23.87;21.37;;;15.30;99.90;;;;;;10473136;28;20243;-78
2022/05/06 02:36:58;;;;;;;19.70;17.80;;;15.20;99.90;;;;;;10470530;28;20235;-78
2022/05/06 02:42:28;;;;;;;21.13;18.93;;;15.20;99.90;;;;;;10483730;28;20201;-79
2022/05/06 02:47:31;;;;;;;21.87;19.67;;;15.20;99.90;;;;;;10480235;28;20216;-78
2022/05/06 02:52:33;;;;;;;20.67;18.57;;;15.20;99.90;;;;;;10481808;28;20275;-78
2022/05/06 02:57:37;;;;;;;19.70;17.93;;;15.20;99.90;;;;;;10468710;28;20248;-78
2022/05/06 03:02:40;;;;;;;20.57;18.33;;;15.20;99.90;;;;;;10473734;28;20228;-78
2022/05/06 03:07:44;;;;;;;22.53;20.23;;;15.20;99.90;;;;;;10480136;28;20244;-78
2022/05/06 03:12:49;;;;;;;22.33;19.93;;;15.20;99.90;;;;;;10484254;28;20201;-78
2022/05/06 03:17:53;;;;;;;19.17;17.27;;;15.20;99.90;;;;;;10466267;28;20220;-78
2022/05/06 03:22:56;;;;;;;21.80;19.70;;;15.20;99.90;;;;;;10474281;28;20209;-78
2022/05/06 03:28:08;;;;;;;18.97;17.17;;;15.20;99.90;;;;;;10486508;28;20248;-77
2022/05/06 03:33:11;;;;;;;21.70;18.73;;;15.10;99.90;;;;;;10481360;28;20232;-78
2022/05/06 03:38:15;;;;;;;19.03;17.10;;;15.10;99.90;;;;;;10483264;28;20275;-78
2022/05/06 03:43:23;;;;;;;18.90;17.07;;;15.20;99.90;;;;;;10489681;28;20275;-78
2022/05/06 03:48:26;;;;;;;20.00;18.00;;;15.10;99.90;;;;;;10489390;28;20212;-78
2022/05/06 03:53:33;;;;;;;19.83;17.97;;;15.10;99.90;;;;;;10484347;28;20224;-78
2022/05/06 03:58:37;;;;;;;20.30;17.17;;;15.10;99.90;;;;;;10485718;28;20216;-78
2022/05/06 04:03:43;;;;;;;19.13;17.13;;;15.20;99.90;;;;;;10486888;28;20196;-78
2022/05/06 04:08:47;;;;;;;19.43;17.40;;;15.10;99.90;;;;;;10462778;28;20315;-79
2022/05/06 04:13:51;;;;;;;19.67;17.33;;;15.20;99.90;;;;;;10481731;28;20201;-79
2022/05/06 04:18:54;;;;;;;19.73;17.67;;;15.10;99.90;;;;;;10458126;28;20373;-80
2022/05/06 04:23:58;;;;;;;19.03;17.30;;;15.10;99.90;;;;;;10472108;28;20661;-79
2022/05/06 04:29:04;;;;;;;18.33;16.50;;;15.10;99.90;;;;;;10462379;28;20311;-79
2022/05/06 04:34:07;;;;;;;20.17;18.23;;;15.10;99.90;;;;;;10481228;28;20648;-79
2022/05/06 04:39:12;;;;;;;21.00;18.83;;;15.10;99.90;;;;;;10459967;28;20228;-79
2022/05/06 04:44:23;;;;;;;21.53;19.53;;;15.10;99.90;;;;;;10494890;28;20416;-79
2022/05/06 04:49:27;;;;;;;19.97;17.87;;;15.20;99.90;;;;;;10493220;28;20255;-79
2022/05/06 04:54:30;;;;;;;18.67;16.93;;;15.20;99.90;;;;;;10460652;28;20254;-78
2022/05/06 04:59:37;;;;;;;19.20;17.40;;;15.20;99.90;;;;;;10477114;28;20601;-78
2022/05/06 05:04:40;;;;;;;20.20;18.30;;;15.20;99.90;;;;;;10458543;28;20559;-78
2022/05/06 05:09:46;;;;;;;18.73;16.93;;;15.20;99.90;;;;;;10461625;28;20228;-79
2022/05/06 05:14:53;;;;;;;19.00;16.90;;;15.10;99.90;;;;;;10471748;28;20203;-79
2022/05/06 05:19:58;;;;;;;17.63;15.97;;;15.10;99.90;;;;;;10475165;28;20203;-79
2022/05/06 05:25:04;;;;;;;18.40;16.53;;;15.10;99.90;;;;;;10501480;28;20672;-78
2022/05/06 05:30:11;;;;;;;18.00;16.20;;;15.10;99.90;;;;;;10455463;28;20243;-79
2022/05/06 05:35:14;;;;;;;19.70;17.80;;;15.10;99.90;;;;;;10484626;28;20224;-80
2022/05/06 05:40:24;;;;;;;19.00;17.37;;;15.10;99.90;;;;;;10455589;28;20238;-79
2022/05/06 05:50:49;;;;;;;18.17;16.40;;;15.00;99.90;;;;;;10462785;28;20235;-78
2022/05/06 05:55:57;;;;;;;17.20;15.50;;;15.00;99.90;;;;;;10481206;28;20458;-78
2022/05/06 06:01:04;;;;;;;18.63;16.97;;;15.00;99.90;;;;;;10482674;28;20648;-79
2022/05/06 06:06:11;;;;;;;18.07;16.43;;;15.10;99.90;;;;;;10475691;28;20228;-78
2022/05/06 06:11:15;;;;;;;20.57;18.43;;;15.10;99.90;;;;;;10458271;28;20603;-78
2022/05/06 06:16:24;;;;;;;17.07;15.40;;;15.10;99.90;;;;;;10452732;28;20616;-78
2022/05/06 06:21:26;;;;;;;18.00;16.50;;;15.10;99.90;;;;;;10473478;28;20402;-77
2022/05/06 06:26:29;;;;;;;18.10;16.20;;;15.10;99.90;;;;;;10490727;28;20220;-78
2022/05/06 06:31:38;;;;;;;17.90;16.30;;;15.10;99.90;;;;;;10455517;28;20228;-77
2022/05/06 06:36:41;;;;;;;16.47;14.97;;;15.10;99.90;;;;;;10474033;28;20323;-77
2022/05/06 06:41:44;;;;;;;17.67;16.03;;;15.10;99.90;;;;;;10464971;28;20207;-78
2022/05/06 06:46:47;;;;;;;16.57;14.97;;;15.10;99.90;;;;;;10480865;28;20268;-78
2022/05/06 06:52:15;;;;;;;16.07;14.60;;;15.10;99.90;;;;;;10470893;28;20676;-77
2022/05/06 06:57:17;;;;;;;16.37;14.77;;;15.20;99.90;;;;;;10492169;28;20221;-77
2022/05/06 07:02:21;;;;;;;15.53;14.13;;;15.20;99.90;;;;;;10491902;28;20200;-78
2022/05/06 07:12:43;;;;;;;13.50;12.33;;;15.30;99.90;;;;;;10476999;28;20274;-78
2022/05/06 07:17:46;;;;;;;15.03;13.60;;;15.30;99.90;;;;;;10488351;28;20251;-79
2022/05/06 07:22:48;;;;;;;13.03;11.90;;;15.30;99.90;;;;;;10491960;28;20196;-78
2022/05/06 07:27:51;;;;;;;15.03;13.53;;;15.40;99.90;;;;;;10494052;28;20252;-78
2022/05/06 07:32:54;;;;;;;13.97;12.67;;;15.40;99.90;;;;;;10457119;28;20224;-77
2022/05/06 07:37:56;;;;;;;14.87;13.57;;;15.40;99.90;;;;;;10470617;28;20225;-78
2022/05/06 07:42:58;;;;;;;12.63;11.50;;;15.40;99.90;;;;;;10473311;28;20296;-78
2022/05/06 07:48:03;;;;;;;13.93;12.60;;;15.40;99.90;;;;;;10501288;28;20396;-78
2022/05/06 07:53:15;;;;;;;12.20;11.10;;;15.50;99.90;;;;;;10474922;28;20285;-78
2022/05/06 07:58:17;;;;;;;12.27;11.17;;;15.50;99.90;;;;;;10504147;28;20212;-78
2022/05/06 08:08:41;;;;;;;12.57;11.47;;;15.50;99.90;;;;;;10491100;28;20299;-77
2022/05/06 08:13:44;;;;;;;12.40;11.20;;;15.70;99.90;;;;;;10477295;28;20207;-78
2022/05/06 08:18:47;;;;;;;11.90;10.80;;;15.70;99.90;;;;;;10468106;28;20213;-79
2022/05/06 08:23:49;;;;;;;11.87;10.67;;;15.80;99.90;;;;;;10460797;28;20205;-78
2022/05/06 08:28:51;;;;;;;12.10;10.47;;;15.90;99.90;;;;;;10465981;28;20245;-78
2022/05/06 08:33:55;;;;;;;10.20;9.37;;;15.90;99.90;;;;;;10459951;28;20236;-78
2022/05/06 08:38:58;;;;;;;10.20;9.37;;;16.00;99.90;;;;;;10460943;28;20252;-78
2022/05/06 08:50:50;;;;;;;9.47;8.77;;;16.10;99.90;;;;;;10482724;28;20200;-78
2022/05/06 08:54:47;;;;;;;10.90;10.00;;;16.20;99.90;;;;;;10483370;28;20197;-77
2022/05/06 08:59:54;;;;;;;10.70;9.70;;;16.30;99.90;;;;;;10479879;28;20263;-78
2022/05/06 09:04:58;;;;;;;10.40;9.50;;;16.30;99.90;;;;;;10480687;28;20197;-78
2022/05/06 09:10:14;;;;;;;9.77;8.97;;;16.40;99.90;;;;;;10478403;28;20228;-80
2022/05/06 09:20:40;;;;;;;10.00;9.27;;;16.60;99.90;;;;;;10456634;28;20246;-79
2022/05/06 09:25:46;;;;;;;10.03;8.60;;;16.70;99.90;;;;;;10427048;28;20219;-80
2022/05/06 09:31:00;;;;;;;10.27;9.30;;;16.80;99.90;;;;;;10457080;28;20399;-79
2022/05/06 09:36:26;;;;;;;9.90;9.10;;;16.90;99.90;;;;;;10459809;28;20217;-80
2022/05/06 09:41:28;;;;;;;9.10;8.30;;;17.00;99.90;;;;;;10474023;28;20260;-80
2022/05/06 09:46:31;;;;;;;9.33;8.50;;;17.10;99.90;;;;;;10474283;28;20224;-80
2022/05/06 09:51:35;;;;;;;16.17;14.67;;;17.20;99.90;;;;;;10458836;28;20287;-80
2022/05/06 09:56:38;;;;;;;12.97;11.67;;;17.40;99.90;;;;;;10454171;28;20216;-78
2022/05/06 10:01:40;;;;;;;11.20;10.20;;;17.50;99.90;;;;;;10471545;28;20284;-78
2022/05/06 10:06:44;;;;;;;11.03;10.10;;;17.60;99.90;;;;;;10457155;28;20224;-78
2022/05/06 10:11:47;;;;;;;9.60;8.70;;;17.70;99.90;;;;;;10475225;28;20241;-77
2022/05/06 10:16:49;;;;;;;9.63;8.77;;;17.80;99.90;;;;;;10455960;28;20259;-78
2022/05/06 10:21:53;;;;;;;8.13;7.53;;;18.00;99.90;;;;;;10475082;28;20188;-79
2022/05/06 10:26:55;;;;;;;8.50;7.70;;;18.30;99.90;;;;;;10473997;28;20308;-79
2022/05/06 10:37:19;;;;;;;9.47;8.57;;;18.90;99.90;;;;;;10443278;28;20319;-78
2022/05/06 10:42:33;;;;;;;8.80;8.00;;;19.20;99.90;;;;;;10473089;28;20491;-79
2022/05/06 10:47:51;;;;;;;9.50;8.70;;;19.30;99.90;;;;;;10474314;28;20223;-79
2022/05/06 10:52:56;;;;;;;8.90;8.10;;;19.50;99.90;;;;;;10477147;28;20792;-78
2022/05/06 10:58:00;;;;;;;8.20;7.40;;;19.50;99.90;;;;;;10474642;28;20209;-79
2022/05/06 11:03:02;;;;;;;7.20;6.50;;;19.50;99.90;;;;;;10478038;28;20192;-79
2022/05/06 11:08:09;;;;;;;7.20;6.70;;;19.50;99.90;;;;;;10460584;28;20399;-79
2022/05/06 11:13:11;;;;;;;7.13;6.43;;;19.60;99.90;;;;;;10460890;28;20587;-78
2022/05/06 11:18:18;;;;;;;7.67;7.07;;;19.70;99.90;;;;;;10469337;28;20311;-79
2022/05/06 11:23:30;;;;;;;7.07;6.47;;;19.80;99.90;;;;;;10440941;28;20258;-79
2022/05/06 11:28:32;;;;;;;5.93;5.53;;;19.90;99.90;;;;;;10478449;28;20228;-78
2022/05/06 11:33:35;;;;;;;5.83;5.33;;;19.90;99.90;;;;;;10461815;28;20240;-79
2022/05/06 11:38:39;;;;;;;6.70;6.00;;;19.90;99.90;;;;;;10460529;28;20255;-79
2022/05/06 11:43:43;;;;;;;6.63;6.10;;;19.90;99.90;;;;;;10467808;28;20204;-80
2022/05/06 11:48:47;;;;;;;6.10;5.60;;;20.00;99.90;;;;;;10476716;28;20547;-80
2022/05/06 11:53:51;;;;;;;7.00;6.40;;;20.00;99.90;;;;;;10490145;28;20243;-79
2022/05/06 11:58:56;;;;;;;7.40;5.83;;;20.10;99.90;;;;;;10487969;28;20224;-78
2022/05/06 12:04:03;;;;;;;7.40;6.37;;;20.00;99.90;;;;;;10483826;28;20201;-80
2022/05/06 12:09:11;;;;;;;7.03;6.43;;;19.90;99.90;;;;;;10455830;28;20252;-78
2022/05/06 12:14:18;;;;;;;7.73;6.80;;;19.80;99.90;;;;;;10468327;28;20201;-78
2022/05/06 12:19:20;;;;;;;7.23;6.63;;;19.90;99.90;;;;;;10479632;28;20303;-80
2022/05/06 12:24:39;;;;;;;7.40;6.80;;;19.90;99.90;;;;;;10484142;28;20215;-79
2022/05/06 12:29:46;;;;;;;6.33;5.73;;;19.90;99.90;;;;;;10467061;28;20731;-79
2022/05/06 12:35:04;;;;;;;6.67;5.70;;;19.80;99.90;;;;;;10448217;28;20201;-80
2022/05/06 12:40:08;;;;;;;9.33;6.70;;;19.90;99.90;;;;;;10478755;28;20192;-80
2022/05/06 12:45:14;;;;;;;7.13;6.50;;;19.90;99.90;;;;;;10506519;28;20202;-79
2022/05/06 12:50:16;;;;;;;6.30;5.80;;;19.90;99.90;;;;;;10491360;28;20719;-79
2022/05/06 12:55:21;;;;;;;5.63;5.23;;;19.90;99.90;;;;;;10498589;28;20221;-81
2022/05/06 13:00:24;;;;;;;7.40;6.70;;;19.90;99.90;;;;;;10492919;28;20197;-81
2022/05/06 13:05:26;;;;;;;6.30;5.70;;;20.00;99.90;;;;;;10495040;28;20275;-80
2022/05/06 13:10:30;;;;;;;6.30;5.80;;;20.00;99.90;;;;;;10477352;28;20213;-81
2022/05/06 13:15:32;;;;;;;5.63;5.20;;;20.00;99.90;;;;;;10498202;28;20224;-81
2022/05/06 13:20:34;;;;;;;6.53;6.03;;;20.10;99.90;;;;;;10496287;28;20227;-80
2022/05/06 13:25:38;;;;;;;5.27;4.77;;;20.20;99.90;;;;;;10458514;28;20232;-81
2022/05/06 13:30:40;;;;;;;6.53;6.10;;;20.20;99.90;;;;;;10495742;28;20212;-81
2022/05/06 13:35:43;;;;;;;5.87;5.47;;;20.10;99.90;;;;;;10496234;28;20256;-79
2022/05/06 13:40:48;;;;;;;5.93;5.53;;;19.90;99.90;;;;;;10493583;28;20196;-81
2022/05/06 13:45:50;;;;;;;6.20;5.70;;;19.80;99.90;;;;;;10481375;28;20701;-80
2022/05/06 13:50:52;;;;;;;7.00;6.27;;;19.80;99.90;;;;;;10470772;28;20296;-80
2022/05/06 14:01:16;;;;;;;6.63;6.03;;;19.80;99.90;;;;;;10480794;28;20197;-80
2022/05/06 14:06:18;;;;;;;6.17;5.77;;;19.80;99.90;;;;;;10496295;28;20221;-80
2022/05/06 14:11:26;;;;;;;6.37;5.77;;;19.80;99.90;;;;;;10470624;28;20716;-81
2022/05/06 14:16:28;;;;;;;6.57;5.97;;;19.90;99.90;;;;;;10486664;28;20603;-80
2022/05/06 14:21:31;;;;;;;7.30;6.70;;;19.80;99.90;;;;;;10494766;28;20220;-81
2022/05/06 14:26:34;;;;;;;6.77;6.27;;;19.70;99.90;;;;;;10489601;28;20299;-80
2022/05/06 14:31:36;;;;;;;6.30;5.70;;;19.70;99.90;;;;;;10430117;28;20221;-81
2022/05/06 14:36:39;;;;;;;7.10;6.60;;;19.70;99.90;;;;;;10470754;28;20248;-81
2022/05/06 14:41:42;;;;;;;6.30;5.80;;;19.70;99.90;;;;;;10461469;28;20205;-81
2022/05/06 14:46:49;;;;;;;6.80;6.20;;;19.70;99.90;;;;;;10463539;28;20268;-80
2022/05/06 14:51:51;;;;;;;6.50;5.63;;;19.60;99.90;;;;;;10487701;28;20296;-80
2022/05/06 14:56:55;;;;;;;6.47;5.93;;;19.70;99.90;;;;;;10491659;28;20656;-78
2022/05/06 15:01:57;;;;;;;6.70;6.20;;;19.70;99.90;;;;;;10481764;28;20361;-82
2022/05/06 15:06:59;;;;;;;5.17;4.77;;;19.70;99.90;;;;;;10473060;28;20224;-81
2022/05/06 15:12:04;;;;;;;6.00;5.60;;;19.70;99.90;;;;;;10469155;28;20708;-79
2022/05/06 15:17:07;;;;;;;7.50;6.90;;;19.70;99.90;;;;;;10468045;28;20216;-80
2022/05/06 15:22:09;;;;;;;6.23;5.50;;;19.70;99.90;;;;;;10466075;28;20295;-80
2022/05/06 15:27:13;;;;;;;7.03;6.37;;;19.70;99.90;;;;;;10465769;28;20261;-79
2022/05/06 15:32:15;;;;;;;6.40;5.90;;;19.60;99.90;;;;;;10485626;28;20275;-80
2022/05/06 15:37:17;;;;;;;7.37;6.50;;;19.60;99.90;;;;;;10456843;28;20220;-79
2022/05/06 15:42:21;;;;;;;6.70;6.10;;;19.50;99.90;;;;;;10478047;28;20535;-79
2022/05/06 15:47:23;;;;;;;6.00;5.50;;;19.50;99.90;;;;;;10445644;28;20223;-80
2022/05/06 15:52:25;;;;;;;5.80;5.30;;;19.40;99.90;;;;;;10469556;28;20223;-79
2022/05/06 15:57:29;;;;;;;5.80;5.30;;;19.40;99.90;;;;;;10464049;28;20232;-78
2022/05/06 16:02:31;;;;;;;5.63;5.13;;;19.40;99.90;;;;;;10479395;28;20229;-80
2022/05/06 16:07:37;;;;;;;6.07;5.50;;;19.30;99.90;;;;;;10478023;28;20240;-80
2022/05/06 16:12:41;;;;;;;5.27;4.87;;;19.20;99.90;;;;;;10474988;28;20736;-80
2022/05/06 16:17:44;;;;;;;6.90;6.30;;;19.20;99.90;;;;;;10479605;28;20232;-81
2022/05/06 16:22:46;;;;;;;6.97;6.37;;;19.10;99.90;;;;;;10474264;28;20185;-79
2022/05/06 16:27:50;;;;;;;6.77;5.87;;;19.10;99.90;;;;;;10454984;28;20305;-79
2022/05/06 16:32:52;;;;;;;5.80;5.40;;;19.00;99.90;;;;;;10464862;28;20221;-80
2022/05/06 16:37:56;;;;;;;6.90;6.30;;;19.00;99.90;;;;;;10465074;28;20236;-80
2022/05/06 16:43:00;;;;;;;6.00;5.50;;;18.90;99.90;;;;;;10471251;28;20197;-81
2022/05/06 16:48:03;;;;;;;6.00;5.50;;;18.80;99.90;;;;;;10466484;28;20220;-79
2022/05/06 16:53:05;;;;;;;10.00;6.30;;;18.70;99.90;;;;;;10491875;28;20217;-80
2022/05/06 16:58:09;;;;;;;7.17;6.57;;;18.70;99.90;;;;;;10469975;28;20731;-80
2022/05/06 17:03:11;;;;;;;6.70;6.10;;;18.60;99.90;;;;;;10473768;28;20234;-80
2022/05/06 17:08:14;;;;;;;9.10;5.67;;;18.50;99.90;;;;;;10470827;28;20221;-81
2022/05/06 17:13:17;;;;;;;6.53;6.03;;;18.50;99.90;;;;;;10470176;28;20212;-79
2022/05/06 17:18:19;;;;;;;5.93;5.37;;;18.40;99.90;;;;;;10479127;28;20220;-81
2022/05/06 17:23:21;;;;;;;6.20;5.70;;;18.30;99.90;;;;;;10500729;28;20204;-79
2022/05/06 17:28:25;;;;;;;6.63;6.03;;;18.20;99.90;;;;;;10495901;28;20250;-79
2022/05/06 17:33:27;;;;;;;6.40;5.83;;;18.20;99.90;;;;;;10469283;28;20231;-81
2022/05/06 17:38:29;;;;;;;7.30;6.60;;;18.10;99.90;;;;;;10549141;22;20235;-83
2022/05/06 17:43:33;;;;;;;7.20;6.60;;;18.10;99.90;;;;;;10548482;28;20647;-82
2022/05/06 17:48:35;;;;;;;7.23;6.17;;;18.00;99.90;;;;;;10541979;28;20242;-82
2022/05/06 17:53:39;;;;;;;8.13;7.43;;;17.90;99.90;;;;;;10515629;28;20738;-83
2022/05/06 17:58:44;;;;;;;8.87;8.17;;;17.80;99.90;;;;;;10510424;28;20269;-82
2022/05/06 18:03:47;;;;;;;12.27;11.10;;;17.80;99.90;;;;;;10518359;28;20199;-83
2022/05/06 18:08:49;;;;;;;7.57;6.97;;;17.70;99.90;;;;;;10509400;28;20224;-83
2022/05/06 18:13:54;;;;;;;7.93;6.20;;;17.60;99.90;;;;;;10512927;28;20307;-84
2022/05/06 18:18:56;;;;;;;6.47;5.90;;;17.60;99.90;;;;;;10513728;28;20757;-83
2022/05/06 18:23:58;;;;;;;7.73;7.03;;;17.60;99.90;;;;;;10505778;28;20199;-83
2022/05/06 18:29:03;;;;;;;6.87;6.37;;;17.50;99.90;;;;;;10526876;28;20242;-84
2022/05/06 18:34:05;;;;;;;7.67;7.10;;;17.50;99.90;;;;;;10528631;28;20314;-84
2022/05/06 18:39:07;;;;;;;8.33;6.27;;;17.40;99.90;;;;;;10512618;28;20722;-83
2022/05/06 18:44:10;;;;;;;7.00;5.80;;;17.30;99.90;;;;;;10548342;28;20484;-83
2022/05/06 18:49:13;;;;;;;6.27;5.87;;;17.30;99.90;;;;;;10537789;28;20265;-83
2022/05/06 18:54:15;;;;;;;6.20;5.60;;;17.10;99.90;;;;;;10518779;28;20223;-82
2022/05/06 18:59:18;;;;;;;6.10;5.63;;;17.00;99.90;;;;;;10524355;28;20654;-82
2022/05/06 19:04:23;;;;;;;6.80;6.10;;;17.00;99.90;;;;;;10505513;28;20219;-82
2022/05/06 19:09:25;;;;;;;6.10;5.60;;;16.90;99.90;;;;;;10520464;28;20766;-82
2022/05/06 19:14:31;;;;;;;7.63;7.03;;;16.70;99.90;;;;;;10509868;28;20228;-82
2022/05/06 19:19:37;;;;;;;5.87;5.27;;;16.60;99.90;;;;;;10518480;28;20223;-83
2022/05/06 19:24:45;;;;;;;7.13;5.80;;;16.50;99.90;;;;;;10516615;28;20197;-81
2022/05/06 19:29:49;;;;;;;6.33;5.77;;;16.40;99.90;;;;;;10526012;28;20235;-82
2022/05/06 19:34:51;;;;;;;6.37;5.80;;;16.30;99.90;;;;;;10520128;28;20220;-83
2022/05/06 19:39:53;;;;;;;6.07;5.57;;;16.20;99.90;;;;;;10511584;28;20602;-82
2022/05/06 19:45:00;;;;;;;8.27;6.60;;;16.00;99.90;;;;;;10518553;28;20556;-84
2022/05/06 19:50:02;;;;;;;7.40;6.70;;;15.90;99.90;;;;;;10556240;28;20752;-82
2022/05/06 19:55:06;;;;;;;6.60;5.87;;;15.80;99.90;;;;;;10530442;28;20311;-82
2022/05/06 20:00:11;;;;;;;7.00;6.20;;;15.80;99.90;;;;;;10530330;28;20223;-82
2022/05/06 20:05:16;;;;;;;6.60;6.00;;;15.60;99.90;;;;;;10536193;28;20198;-83
2022/05/06 20:10:18;;;;;;;6.73;6.20;;;15.60;99.90;;;;;;10505888;28;20214;-82
2022/05/06 20:15:22;;;;;;;6.40;5.90;;;15.40;99.90;;;;;;10519077;28;20224;-82
2022/05/06 20:20:24;;;;;;;8.23;7.60;;;15.40;99.90;;;;;;10525997;28;20667;-82
2022/05/06 20:25:26;;;;;;;7.37;6.53;;;15.30;99.90;;;;;;10525795;28;20241;-83
2022/05/06 20:30:30;;;;;;;6.33;5.73;;;15.20;99.90;;;;;;10538221;28;20225;-83
2022/05/06 20:35:34;;;;;;;6.10;5.60;;;15.10;99.90;;;;;;10538960;28;20199;-83
2022/05/06 20:40:36;;;;;;;7.63;6.93;;;15.00;99.90;;;;;;10534164;28;20188;-83
2022/05/06 20:45:40;;;;;;;8.23;6.83;;;15.00;99.90;;;;;;10518552;28;20224;-83
2022/05/06 20:50:42;;;;;;;6.53;6.03;;;14.90;99.90;;;;;;10537426;28;20220;-83
2022/05/06 20:55:44;;;;;;;7.90;7.20;;;14.80;99.90;;;;;;10511206;28;20240;-83
2022/05/06 21:00:47;;;;;;;7.27;6.57;;;14.80;99.90;;;;;;10509003;28;20199;-83
2022/05/06 21:05:50;;;;;;;7.70;7.10;;;14.70;99.90;;;;;;10542653;28;20738;-83
2022/05/06 21:16:25;;;;;;;7.73;7.10;;;14.60;99.90;;;;;;10466551;28;20234;-83
2022/05/06 21:21:27;;;;;;;9.00;8.10;;;14.60;99.90;;;;;;10541381;28;20188;-83
2022/05/06 21:26:30;;;;;;;8.03;7.40;;;14.50;99.90;;;;;;10519209;28;20563;-83
2022/05/06 21:31:34;;;;;;;8.27;7.57;;;14.40;99.90;;;;;;10536863;28;20215;-83
2022/05/06 21:36:36;;;;;;;8.03;7.23;;;14.40;99.90;;;;;;10514916;28;20231;-83
2022/05/06 21:41:38;;;;;;;9.33;7.83;;;14.30;99.90;;;;;;10528698;28;20203;-83
2022/05/06 21:46:42;;;;;;;10.57;8.23;;;14.30;99.90;;;;;;10541259;28;20216;-83
2022/05/06 21:51:44;;;;;;;8.93;8.23;;;14.30;99.90;;;;;;10532935;28;20215;-83
2022/05/06 21:56:46;;;;;;;8.33;7.63;;;14.20;99.90;;;;;;10531894;28;20281;-83
2022/05/06 22:01:51;;;;;;;8.87;7.97;;;14.20;99.90;;;;;;10536771;28;20204;-83
2022/05/06 22:06:53;;;;;;;8.70;7.43;;;14.20;99.90;;;;;;10521986;28;20215;-83
2022/05/06 22:11:55;;;;;;;7.83;7.13;;;14.20;99.90;;;;;;10542538;28;20640;-83
2022/05/06 22:16:59;;;;;;;7.70;7.00;;;14.20;99.90;;;;;;10532644;28;20211;-83
2022/05/06 22:22:01;;;;;;;7.03;6.50;;;14.10;99.90;;;;;;10540233;28;20192;-83
2022/05/06 22:27:04;;;;;;;7.27;6.67;;;14.10;99.90;;;;;;10538991;28;20664;-83
2022/05/06 22:32:08;;;;;;;7.00;6.50;;;14.00;99.90;;;;;;10520859;28;20220;-83
2022/05/06 22:37:10;;;;;;;7.93;7.23;;;14.00;99.90;;;;;;10507674;28;20276;-83
2022/05/06 22:47:33;;;;;;;9.40;8.50;;;14.00;99.90;;;;;;10515135;28;20268;-83
2022/05/06 22:52:35;;;;;;;8.90;8.00;;;14.00;99.90;;;;;;10548863;28;20212;-84
2022/05/06 22:57:38;;;;;;;7.73;7.07;;;14.00;99.90;;;;;;10532520;28;20224;-83
2022/05/06 23:02:41;;;;;;;7.30;6.70;;;14.00;99.90;;;;;;10533094;28;20207;-82
2022/05/06 23:07:49;;;;;;;7.70;7.00;;;13.90;99.90;;;;;;10514131;28;20332;-84
2022/05/06 23:12:51;;;;;;;8.30;7.57;;;13.90;99.90;;;;;;10523073;28;20302;-83
2022/05/06 23:17:56;;;;;;;7.43;6.80;;;13.80;99.90;;;;;;10529218;28;20239;-83
2022/05/06 23:22:59;;;;;;;7.67;6.83;;;13.70;99.90;;;;;;10531173;28;20200;-83
2022/05/06 23:28:01;;;;;;;7.67;7.17;;;13.70;99.90;;;;;;10520010;28;20215;-83
2022/05/06 23:33:04;;;;;;;7.30;6.80;;;13.70;99.90;;;;;;10535157;28;20246;-83
2022/05/06 23:38:10;;;;;;;7.97;7.27;;;13.60;99.90;;;;;;10530995;22;20233;-85
2022/05/06 23:43:15;;;;;;;8.13;7.33;;;13.60;99.90;;;;;;10485246;28;20204;-87
2022/05/06 23:48:39;;;;;;;8.03;7.30;;;13.50;99.90;;;;;;10494197;28;20278;-86
2022/05/06 23:53:42;;;;;;;8.07;7.47;;;13.50;99.90;;;;;;10449577;28;20252;-85
2022/05/06 23:58:44;;;;;;;9.53;8.83;;;13.40;99.90;;;;;;10459533;28;20216;-84
